sensor_id;sensor_type;location;lat;lon;timestamp;P1;durP1;ratioP1;P2;durP2;ratioP2
49812;SDS011;35706;52.100;5.056;2023-04-25T00:00:24;14.63;;;1.25;;
49812;SDS011;35706;52.100;5.056;2023-04-25T00:01:25;10.55;;;0.65;;
49812;SDS011;35706;52.100;5.056;2023-04-25T00:02:25;9.35;;;0.80;;
49812;SDS011;35706;52.100;5.056;2023-04-25T00:03:25;18.83;;;0.75;;
49812;SDS011;35706;52.100;5.056;2023-04-25T00:04:26;13.45;;;0.85;;
49812;SDS011;35706;52.100;5.056;2023-04-25T00:05:27;15.93;;;0.70;;
49812;SDS011;35706;52.100;5.056;2023-04-25T00:06:29;7.82;;;0.70;;
49812;SDS011;35706;52.100;5.056;2023-04-25T00:07:30;13.23;;;0.73;;
49812;SDS011;35706;52.100;5.056;2023-04-25T00:08:31;15.73;;;0.70;;
49812;SDS011;35706;52.100;5.056;2023-04-25T00:09:31;12.23;;;0.60;;
49812;SDS011;35706;52.100;5.056;2023-04-25T00:10:31;8.18;;;0.63;;
49812;SDS011;35706;52.100;5.056;2023-04-25T00:11:32;11.02;;;0.82;;
49812;SDS011;35706;52.100;5.056;2023-04-25T00:12:32;7.00;;;0.60;;
49812;SDS011;35706;52.100;5.056;2023-04-25T00:13:33;16.30;;;1.17;;
49812;SDS011;35706;52.100;5.056;2023-04-25T00:14:34;13.10;;;0.60;;
49812;SDS011;35706;52.100;5.056;2023-04-25T00:15:35;8.60;;;0.60;;
49812;SDS011;35706;52.100;5.056;2023-04-25T00:16:37;7.78;;;1.02;;
49812;SDS011;35706;52.100;5.056;2023-04-25T00:17:37;8.15;;;0.80;;
49812;SDS011;35706;52.100;5.056;2023-04-25T00:18:38;11.32;;;0.65;;
49812;SDS011;35706;52.100;5.056;2023-04-25T00:19:39;10.63;;;0.60;;
49812;SDS011;35706;52.100;5.056;2023-04-25T00:20:39;12.23;;;0.60;;
49812;SDS011;35706;52.100;5.056;2023-04-25T00:21:40;12.48;;;0.65;;
49812;SDS011;35706;52.100;5.056;2023-04-25T00:22:40;10.13;;;0.70;;
49812;SDS011;35706;52.100;5.056;2023-04-25T00:23:41;11.68;;;0.63;;
49812;SDS011;35706;52.100;5.056;2023-04-25T00:24:41;9.45;;;0.50;;
49812;SDS011;35706;52.100;5.056;2023-04-25T00:25:42;7.25;;;0.60;;
49812;SDS011;35706;52.100;5.056;2023-04-25T00:26:42;6.63;;;0.70;;
49812;SDS011;35706;52.100;5.056;2023-04-25T00:27:42;14.38;;;0.70;;
49812;SDS011;35706;52.100;5.056;2023-04-25T00:28:42;9.43;;;0.60;;
49812;SDS011;35706;52.100;5.056;2023-04-25T00:29:43;5.95;;;0.50;;
49812;SDS011;35706;52.100;5.056;2023-04-25T00:30:43;10.35;;;0.60;;
49812;SDS011;35706;52.100;5.056;2023-04-25T00:31:43;10.18;;;0.70;;
49812;SDS011;35706;52.100;5.056;2023-04-25T00:32:44;4.88;;;0.50;;
49812;SDS011;35706;52.100;5.056;2023-04-25T00:33:44;8.13;;;0.60;;
49812;SDS011;35706;52.100;5.056;2023-04-25T00:34:44;9.93;;;0.68;;
49812;SDS011;35706;52.100;5.056;2023-04-25T00:35:45;7.30;;;0.70;;
49812;SDS011;35706;52.100;5.056;2023-04-25T00:36:45;7.82;;;0.60;;
49812;SDS011;35706;52.100;5.056;2023-04-25T00:37:45;9.73;;;0.60;;
49812;SDS011;35706;52.100;5.056;2023-04-25T00:38:46;7.43;;;0.93;;
49812;SDS011;35706;52.100;5.056;2023-04-25T00:39:46;10.93;;;0.60;;
49812;SDS011;35706;52.100;5.056;2023-04-25T00:40:46;14.23;;;0.90;;
49812;SDS011;35706;52.100;5.056;2023-04-25T00:41:47;3.97;;;0.57;;
49812;SDS011;35706;52.100;5.056;2023-04-25T00:42:48;10.82;;;0.95;;
49812;SDS011;35706;52.100;5.056;2023-04-25T00:43:49;11.70;;;0.70;;
49812;SDS011;35706;52.100;5.056;2023-04-25T00:44:51;14.82;;;0.80;;
49812;SDS011;35706;52.100;5.056;2023-04-25T00:45:52;13.23;;;0.75;;
49812;SDS011;35706;52.100;5.056;2023-04-25T00:46:53;16.00;;;0.65;;
49812;SDS011;35706;52.100;5.056;2023-04-25T00:47:54;8.05;;;0.60;;
49812;SDS011;35706;52.100;5.056;2023-04-25T00:48:54;9.18;;;0.60;;
49812;SDS011;35706;52.100;5.056;2023-04-25T00:49:55;9.63;;;0.75;;
49812;SDS011;35706;52.100;5.056;2023-04-25T00:50:56;16.77;;;0.80;;
49812;SDS011;35706;52.100;5.056;2023-04-25T00:51:58;11.18;;;0.73;;
49812;SDS011;35706;52.100;5.056;2023-04-25T00:52:59;11.15;;;0.95;;
49812;SDS011;35706;52.100;5.056;2023-04-25T00:53:59;13.20;;;0.77;;
49812;SDS011;35706;52.100;5.056;2023-04-25T00:55:00;5.78;;;0.60;;
49812;SDS011;35706;52.100;5.056;2023-04-25T00:56:00;7.38;;;1.00;;
49812;SDS011;35706;52.100;5.056;2023-04-25T00:57:01;14.13;;;0.80;;
49812;SDS011;35706;52.100;5.056;2023-04-25T00:58:02;14.95;;;0.68;;
49812;SDS011;35706;52.100;5.056;2023-04-25T00:59:02;10.77;;;0.77;;
49812;SDS011;35706;52.100;5.056;2023-04-25T01:00:04;16.23;;;0.77;;
49812;SDS011;35706;52.100;5.056;2023-04-25T01:01:06;11.85;;;0.65;;
49812;SDS011;35706;52.100;5.056;2023-04-25T01:02:08;9.70;;;0.60;;
49812;SDS011;35706;52.100;5.056;2023-04-25T01:03:09;9.30;;;0.68;;
49812;SDS011;35706;52.100;5.056;2023-04-25T01:04:10;9.32;;;0.60;;
49812;SDS011;35706;52.100;5.056;2023-04-25T01:05:10;10.50;;;0.70;;
49812;SDS011;35706;52.100;5.056;2023-04-25T01:06:12;8.75;;;0.68;;
49812;SDS011;35706;52.100;5.056;2023-04-25T01:07:12;7.97;;;0.70;;
49812;SDS011;35706;52.100;5.056;2023-04-25T01:08:13;15.52;;;1.35;;
49812;SDS011;35706;52.100;5.056;2023-04-25T01:09:14;10.85;;;0.68;;
49812;SDS011;35706;52.100;5.056;2023-04-25T01:10:14;11.52;;;1.02;;
49812;SDS011;35706;52.100;5.056;2023-04-25T01:11:15;9.23;;;1.00;;
49812;SDS011;35706;52.100;5.056;2023-04-25T01:12:15;8.48;;;0.60;;
49812;SDS011;35706;52.100;5.056;2023-04-25T01:13:16;13.38;;;1.08;;
49812;SDS011;35706;52.100;5.056;2023-04-25T01:14:16;16.40;;;0.73;;
49812;SDS011;35706;52.100;5.056;2023-04-25T01:15:17;11.52;;;0.70;;
49812;SDS011;35706;52.100;5.056;2023-04-25T01:16:17;9.85;;;1.45;;
49812;SDS011;35706;52.100;5.056;2023-04-25T01:17:18;9.48;;;1.00;;
49812;SDS011;35706;52.100;5.056;2023-04-25T01:18:19;12.40;;;0.70;;
49812;SDS011;35706;52.100;5.056;2023-04-25T01:19:20;10.32;;;0.85;;
49812;SDS011;35706;52.100;5.056;2023-04-25T01:20:21;10.95;;;0.60;;
49812;SDS011;35706;52.100;5.056;2023-04-25T01:21:26;10.38;;;0.80;;
49812;SDS011;35706;52.100;5.056;2023-04-25T01:22:29;8.15;;;0.60;;
49812;SDS011;35706;52.100;5.056;2023-04-25T01:23:30;7.70;;;0.50;;
49812;SDS011;35706;52.100;5.056;2023-04-25T01:24:33;13.07;;;0.70;;
49812;SDS011;35706;52.100;5.056;2023-04-25T01:25:33;9.15;;;0.60;;
49812;SDS011;35706;52.100;5.056;2023-04-25T01:26:34;7.80;;;0.60;;
49812;SDS011;35706;52.100;5.056;2023-04-25T01:27:36;10.70;;;0.95;;
49812;SDS011;35706;52.100;5.056;2023-04-25T01:28:37;14.63;;;0.80;;
49812;SDS011;35706;52.100;5.056;2023-04-25T01:29:41;12.52;;;0.80;;
49812;SDS011;35706;52.100;5.056;2023-04-25T01:30:42;8.73;;;0.65;;
49812;SDS011;35706;52.100;5.056;2023-04-25T01:31:43;11.40;;;0.88;;
49812;SDS011;35706;52.100;5.056;2023-04-25T01:32:44;14.82;;;1.02;;
49812;SDS011;35706;52.100;5.056;2023-04-25T01:33:45;9.63;;;0.70;;
49812;SDS011;35706;52.100;5.056;2023-04-25T01:34:45;9.93;;;0.65;;
49812;SDS011;35706;52.100;5.056;2023-04-25T01:35:46;9.98;;;0.70;;
49812;SDS011;35706;52.100;5.056;2023-04-25T01:36:49;9.10;;;0.60;;
49812;SDS011;35706;52.100;5.056;2023-04-25T01:37:50;12.00;;;0.57;;
49812;SDS011;35706;52.100;5.056;2023-04-25T01:38:51;4.60;;;0.60;;
49812;SDS011;35706;52.100;5.056;2023-04-25T01:39:52;7.45;;;0.85;;
49812;SDS011;35706;52.100;5.056;2023-04-25T01:40:53;12.32;;;0.80;;
49812;SDS011;35706;52.100;5.056;2023-04-25T01:41:54;10.55;;;0.60;;
49812;SDS011;35706;52.100;5.056;2023-04-25T01:42:55;10.60;;;0.60;;
49812;SDS011;35706;52.100;5.056;2023-04-25T01:43:55;11.23;;;0.60;;
49812;SDS011;35706;52.100;5.056;2023-04-25T01:44:56;9.85;;;0.70;;
49812;SDS011;35706;52.100;5.056;2023-04-25T01:45:57;11.80;;;0.70;;
49812;SDS011;35706;52.100;5.056;2023-04-25T01:46:58;9.45;;;0.55;;
49812;SDS011;35706;52.100;5.056;2023-04-25T01:47:58;8.48;;;0.60;;
49812;SDS011;35706;52.100;5.056;2023-04-25T01:48:59;10.88;;;0.70;;
49812;SDS011;35706;52.100;5.056;2023-04-25T01:50:00;15.55;;;1.25;;
49812;SDS011;35706;52.100;5.056;2023-04-25T01:51:00;10.95;;;1.10;;
49812;SDS011;35706;52.100;5.056;2023-04-25T01:52:01;13.05;;;0.60;;
49812;SDS011;35706;52.100;5.056;2023-04-25T01:53:01;7.57;;;0.80;;
49812;SDS011;35706;52.100;5.056;2023-04-25T01:54:02;15.75;;;0.77;;
49812;SDS011;35706;52.100;5.056;2023-04-25T01:55:02;5.70;;;0.60;;
49812;SDS011;35706;52.100;5.056;2023-04-25T01:56:03;9.25;;;0.80;;
49812;SDS011;35706;52.100;5.056;2023-04-25T01:57:04;7.95;;;0.90;;
49812;SDS011;35706;52.100;5.056;2023-04-25T01:58:04;14.27;;;0.70;;
49812;SDS011;35706;52.100;5.056;2023-04-25T01:59:12;11.93;;;0.73;;
49812;SDS011;35706;52.100;5.056;2023-04-25T02:00:13;9.77;;;0.70;;
49812;SDS011;35706;52.100;5.056;2023-04-25T02:01:13;11.57;;;0.60;;
49812;SDS011;35706;52.100;5.056;2023-04-25T02:02:14;14.05;;;0.77;;
49812;SDS011;35706;52.100;5.056;2023-04-25T02:03:14;9.65;;;0.70;;
49812;SDS011;35706;52.100;5.056;2023-04-25T02:04:14;10.88;;;0.77;;
49812;SDS011;35706;52.100;5.056;2023-04-25T02:05:15;10.60;;;0.60;;
49812;SDS011;35706;52.100;5.056;2023-04-25T02:06:15;6.07;;;0.80;;
49812;SDS011;35706;52.100;5.056;2023-04-25T02:07:15;19.25;;;1.23;;
49812;SDS011;35706;52.100;5.056;2023-04-25T02:08:16;10.25;;;0.70;;
49812;SDS011;35706;52.100;5.056;2023-04-25T02:09:17;12.98;;;1.77;;
49812;SDS011;35706;52.100;5.056;2023-04-25T02:10:17;16.13;;;1.20;;
49812;SDS011;35706;52.100;5.056;2023-04-25T02:11:17;7.93;;;0.70;;
49812;SDS011;35706;52.100;5.056;2023-04-25T02:12:18;10.23;;;0.70;;
49812;SDS011;35706;52.100;5.056;2023-04-25T02:13:18;10.63;;;0.90;;
49812;SDS011;35706;52.100;5.056;2023-04-25T02:14:18;8.13;;;0.80;;
49812;SDS011;35706;52.100;5.056;2023-04-25T02:15:18;11.88;;;1.02;;
49812;SDS011;35706;52.100;5.056;2023-04-25T02:16:19;14.38;;;1.50;;
49812;SDS011;35706;52.100;5.056;2023-04-25T02:17:20;13.13;;;1.42;;
49812;SDS011;35706;52.100;5.056;2023-04-25T02:18:21;9.40;;;0.90;;
49812;SDS011;35706;52.100;5.056;2023-04-25T02:19:21;12.65;;;1.08;;
49812;SDS011;35706;52.100;5.056;2023-04-25T02:20:22;13.30;;;0.90;;
49812;SDS011;35706;52.100;5.056;2023-04-25T02:21:24;12.70;;;1.52;;
49812;SDS011;35706;52.100;5.056;2023-04-25T02:22:25;14.88;;;0.90;;
49812;SDS011;35706;52.100;5.056;2023-04-25T02:23:26;8.60;;;1.02;;
49812;SDS011;35706;52.100;5.056;2023-04-25T02:24:28;13.82;;;0.80;;
49812;SDS011;35706;52.100;5.056;2023-04-25T02:25:29;10.45;;;0.85;;
49812;SDS011;35706;52.100;5.056;2023-04-25T02:26:29;12.57;;;0.90;;
49812;SDS011;35706;52.100;5.056;2023-04-25T02:27:30;20.10;;;1.58;;
49812;SDS011;35706;52.100;5.056;2023-04-25T02:28:30;16.60;;;1.10;;
49812;SDS011;35706;52.100;5.056;2023-04-25T02:29:31;11.82;;;1.00;;
49812;SDS011;35706;52.100;5.056;2023-04-25T02:30:31;17.90;;;1.20;;
49812;SDS011;35706;52.100;5.056;2023-04-25T02:31:31;7.30;;;1.02;;
49812;SDS011;35706;52.100;5.056;2023-04-25T02:32:32;17.30;;;1.20;;
49812;SDS011;35706;52.100;5.056;2023-04-25T02:33:34;9.57;;;0.90;;
49812;SDS011;35706;52.100;5.056;2023-04-25T02:34:34;13.48;;;1.10;;
49812;SDS011;35706;52.100;5.056;2023-04-25T02:35:35;14.52;;;1.20;;
49812;SDS011;35706;52.100;5.056;2023-04-25T02:36:35;18.27;;;1.73;;
49812;SDS011;35706;52.100;5.056;2023-04-25T02:37:36;12.93;;;0.80;;
49812;SDS011;35706;52.100;5.056;2023-04-25T02:38:37;11.80;;;0.95;;
49812;SDS011;35706;52.100;5.056;2023-04-25T02:39:38;14.68;;;0.88;;
49812;SDS011;35706;52.100;5.056;2023-04-25T02:40:38;11.93;;;0.80;;
49812;SDS011;35706;52.100;5.056;2023-04-25T02:41:38;14.18;;;1.13;;
49812;SDS011;35706;52.100;5.056;2023-04-25T02:42:39;12.05;;;1.10;;
49812;SDS011;35706;52.100;5.056;2023-04-25T02:43:39;13.95;;;1.35;;
49812;SDS011;35706;52.100;5.056;2023-04-25T02:44:39;11.65;;;0.75;;
49812;SDS011;35706;52.100;5.056;2023-04-25T02:45:40;12.55;;;0.90;;
49812;SDS011;35706;52.100;5.056;2023-04-25T02:46:40;7.78;;;1.00;;
49812;SDS011;35706;52.100;5.056;2023-04-25T02:47:40;13.68;;;0.85;;
49812;SDS011;35706;52.100;5.056;2023-04-25T02:48:41;11.30;;;0.90;;
49812;SDS011;35706;52.100;5.056;2023-04-25T02:49:41;8.57;;;0.80;;
49812;SDS011;35706;52.100;5.056;2023-04-25T02:50:41;10.90;;;0.82;;
49812;SDS011;35706;52.100;5.056;2023-04-25T02:51:42;9.80;;;1.08;;
49812;SDS011;35706;52.100;5.056;2023-04-25T02:52:42;7.88;;;0.75;;
49812;SDS011;35706;52.100;5.056;2023-04-25T02:53:43;10.55;;;0.77;;
49812;SDS011;35706;52.100;5.056;2023-04-25T02:54:44;11.13;;;1.08;;
49812;SDS011;35706;52.100;5.056;2023-04-25T02:55:44;9.32;;;0.70;;
49812;SDS011;35706;52.100;5.056;2023-04-25T02:56:44;8.05;;;0.70;;
49812;SDS011;35706;52.100;5.056;2023-04-25T02:57:45;10.50;;;1.00;;
49812;SDS011;35706;52.100;5.056;2023-04-25T02:58:45;11.48;;;1.05;;
49812;SDS011;35706;52.100;5.056;2023-04-25T02:59:45;10.02;;;0.82;;
49812;SDS011;35706;52.100;5.056;2023-04-25T03:00:46;11.10;;;0.80;;
49812;SDS011;35706;52.100;5.056;2023-04-25T03:01:46;8.50;;;0.65;;
49812;SDS011;35706;52.100;5.056;2023-04-25T03:02:46;9.65;;;0.70;;
49812;SDS011;35706;52.100;5.056;2023-04-25T03:03:46;15.23;;;0.70;;
49812;SDS011;35706;52.100;5.056;2023-04-25T03:04:47;9.77;;;0.80;;
49812;SDS011;35706;52.100;5.056;2023-04-25T03:05:51;7.10;;;0.85;;
49812;SDS011;35706;52.100;5.056;2023-04-25T03:06:51;8.80;;;0.60;;
49812;SDS011;35706;52.100;5.056;2023-04-25T03:07:53;8.32;;;0.70;;
49812;SDS011;35706;52.100;5.056;2023-04-25T03:08:53;8.45;;;0.60;;
49812;SDS011;35706;52.100;5.056;2023-04-25T03:09:53;6.72;;;0.70;;
49812;SDS011;35706;52.100;5.056;2023-04-25T03:10:55;6.45;;;0.60;;
49812;SDS011;35706;52.100;5.056;2023-04-25T03:11:55;9.68;;;0.90;;
49812;SDS011;35706;52.100;5.056;2023-04-25T03:12:56;6.38;;;0.60;;
49812;SDS011;35706;52.100;5.056;2023-04-25T03:13:56;9.80;;;0.60;;
49812;SDS011;35706;52.100;5.056;2023-04-25T03:14:56;10.68;;;0.80;;
49812;SDS011;35706;52.100;5.056;2023-04-25T03:15:56;13.10;;;0.82;;
49812;SDS011;35706;52.100;5.056;2023-04-25T03:16:57;8.40;;;0.50;;
49812;SDS011;35706;52.100;5.056;2023-04-25T03:17:57;12.73;;;1.13;;
49812;SDS011;35706;52.100;5.056;2023-04-25T03:18:57;15.45;;;0.70;;
49812;SDS011;35706;52.100;5.056;2023-04-25T03:19:58;5.55;;;0.50;;
49812;SDS011;35706;52.100;5.056;2023-04-25T03:20:58;3.78;;;0.40;;
49812;SDS011;35706;52.100;5.056;2023-04-25T03:21:58;5.40;;;0.50;;
49812;SDS011;35706;52.100;5.056;2023-04-25T03:22:59;6.78;;;0.40;;
49812;SDS011;35706;52.100;5.056;2023-04-25T03:24:00;8.90;;;0.55;;
49812;SDS011;35706;52.100;5.056;2023-04-25T03:25:02;6.75;;;0.60;;
49812;SDS011;35706;52.100;5.056;2023-04-25T03:26:03;7.70;;;0.80;;
49812;SDS011;35706;52.100;5.056;2023-04-25T03:27:04;8.00;;;0.50;;
49812;SDS011;35706;52.100;5.056;2023-04-25T03:28:04;7.93;;;0.50;;
49812;SDS011;35706;52.100;5.056;2023-04-25T03:29:05;8.10;;;0.40;;
49812;SDS011;35706;52.100;5.056;2023-04-25T03:30:05;6.55;;;0.47;;
49812;SDS011;35706;52.100;5.056;2023-04-25T03:31:06;4.70;;;0.40;;
49812;SDS011;35706;52.100;5.056;2023-04-25T03:32:06;5.45;;;0.60;;
49812;SDS011;35706;52.100;5.056;2023-04-25T03:33:07;5.18;;;0.40;;
49812;SDS011;35706;52.100;5.056;2023-04-25T03:34:07;5.60;;;0.50;;
49812;SDS011;35706;52.100;5.056;2023-04-25T03:35:07;7.63;;;0.40;;
49812;SDS011;35706;52.100;5.056;2023-04-25T03:36:08;6.47;;;0.55;;
49812;SDS011;35706;52.100;5.056;2023-04-25T03:37:08;7.55;;;0.50;;
49812;SDS011;35706;52.100;5.056;2023-04-25T03:38:08;4.15;;;0.30;;
49812;SDS011;35706;52.100;5.056;2023-04-25T03:39:09;3.72;;;0.40;;
49812;SDS011;35706;52.100;5.056;2023-04-25T03:40:09;2.45;;;0.30;;
49812;SDS011;35706;52.100;5.056;2023-04-25T03:41:10;7.22;;;0.30;;
49812;SDS011;35706;52.100;5.056;2023-04-25T03:42:10;6.03;;;0.30;;
49812;SDS011;35706;52.100;5.056;2023-04-25T03:43:10;5.70;;;0.35;;
49812;SDS011;35706;52.100;5.056;2023-04-25T03:44:11;5.45;;;0.30;;
49812;SDS011;35706;52.100;5.056;2023-04-25T03:45:11;7.30;;;0.30;;
49812;SDS011;35706;52.100;5.056;2023-04-25T03:46:11;4.68;;;0.30;;
49812;SDS011;35706;52.100;5.056;2023-04-25T03:47:12;4.60;;;0.30;;
49812;SDS011;35706;52.100;5.056;2023-04-25T03:48:12;5.65;;;0.40;;
49812;SDS011;35706;52.100;5.056;2023-04-25T03:49:13;5.80;;;0.57;;
49812;SDS011;35706;52.100;5.056;2023-04-25T03:50:13;6.80;;;0.40;;
49812;SDS011;35706;52.100;5.056;2023-04-25T03:51:13;4.63;;;0.30;;
49812;SDS011;35706;52.100;5.056;2023-04-25T03:52:14;6.78;;;0.40;;
49812;SDS011;35706;52.100;5.056;2023-04-25T03:53:14;8.38;;;0.60;;
49812;SDS011;35706;52.100;5.056;2023-04-25T03:54:14;6.07;;;0.40;;
49812;SDS011;35706;52.100;5.056;2023-04-25T03:55:15;5.72;;;0.30;;
49812;SDS011;35706;52.100;5.056;2023-04-25T03:56:15;8.25;;;0.40;;
49812;SDS011;35706;52.100;5.056;2023-04-25T03:57:15;4.43;;;0.60;;
49812;SDS011;35706;52.100;5.056;2023-04-25T03:58:16;8.48;;;1.05;;
49812;SDS011;35706;52.100;5.056;2023-04-25T03:59:16;5.45;;;0.50;;
49812;SDS011;35706;52.100;5.056;2023-04-25T04:00:17;3.17;;;0.30;;
49812;SDS011;35706;52.100;5.056;2023-04-25T04:01:17;8.05;;;0.40;;
49812;SDS011;35706;52.100;5.056;2023-04-25T04:02:17;9.27;;;0.40;;
49812;SDS011;35706;52.100;5.056;2023-04-25T04:03:18;3.47;;;0.32;;
49812;SDS011;35706;52.100;5.056;2023-04-25T04:04:18;7.13;;;0.60;;
49812;SDS011;35706;52.100;5.056;2023-04-25T04:05:18;2.65;;;0.30;;
49812;SDS011;35706;52.100;5.056;2023-04-25T04:06:19;4.15;;;0.32;;
49812;SDS011;35706;52.100;5.056;2023-04-25T04:07:20;5.22;;;0.40;;
49812;SDS011;35706;52.100;5.056;2023-04-25T04:08:21;7.78;;;0.60;;
49812;SDS011;35706;52.100;5.056;2023-04-25T04:09:21;3.95;;;0.30;;
49812;SDS011;35706;52.100;5.056;2023-04-25T04:10:22;3.40;;;0.30;;
49812;SDS011;35706;52.100;5.056;2023-04-25T04:11:22;5.50;;;0.30;;
49812;SDS011;35706;52.100;5.056;2023-04-25T04:12:22;4.20;;;0.30;;
49812;SDS011;35706;52.100;5.056;2023-04-25T04:13:23;2.05;;;0.30;;
49812;SDS011;35706;52.100;5.056;2023-04-25T04:14:23;5.18;;;0.40;;
49812;SDS011;35706;52.100;5.056;2023-04-25T04:15:23;8.38;;;0.30;;
49812;SDS011;35706;52.100;5.056;2023-04-25T04:16:23;6.28;;;0.40;;
49812;SDS011;35706;52.100;5.056;2023-04-25T04:17:24;4.63;;;0.38;;
49812;SDS011;35706;52.100;5.056;2023-04-25T04:18:25;3.33;;;0.30;;
49812;SDS011;35706;52.100;5.056;2023-04-25T04:19:25;8.07;;;0.40;;
49812;SDS011;35706;52.100;5.056;2023-04-25T04:20:25;5.95;;;0.35;;
49812;SDS011;35706;52.100;5.056;2023-04-25T04:21:26;6.25;;;0.40;;
49812;SDS011;35706;52.100;5.056;2023-04-25T04:22:27;8.70;;;0.40;;
49812;SDS011;35706;52.100;5.056;2023-04-25T04:23:27;5.18;;;0.30;;
49812;SDS011;35706;52.100;5.056;2023-04-25T04:24:28;4.22;;;0.32;;
49812;SDS011;35706;52.100;5.056;2023-04-25T04:25:28;3.72;;;0.40;;
49812;SDS011;35706;52.100;5.056;2023-04-25T04:26:29;5.25;;;0.30;;
49812;SDS011;35706;52.100;5.056;2023-04-25T04:27:32;5.22;;;0.35;;
49812;SDS011;35706;52.100;5.056;2023-04-25T04:28:33;3.08;;;0.40;;
49812;SDS011;35706;52.100;5.056;2023-04-25T04:29:33;7.40;;;0.50;;
49812;SDS011;35706;52.100;5.056;2023-04-25T04:30:33;5.57;;;0.30;;
49812;SDS011;35706;52.100;5.056;2023-04-25T04:31:36;3.58;;;0.35;;
49812;SDS011;35706;52.100;5.056;2023-04-25T04:32:36;6.85;;;0.40;;
49812;SDS011;35706;52.100;5.056;2023-04-25T04:33:37;3.92;;;0.40;;
49812;SDS011;35706;52.100;5.056;2023-04-25T04:34:37;2.80;;;0.30;;
49812;SDS011;35706;52.100;5.056;2023-04-25T04:35:39;7.80;;;0.40;;
49812;SDS011;35706;52.100;5.056;2023-04-25T04:36:39;4.35;;;0.38;;
49812;SDS011;35706;52.100;5.056;2023-04-25T04:37:40;6.82;;;0.40;;
49812;SDS011;35706;52.100;5.056;2023-04-25T04:38:40;5.47;;;0.40;;
49812;SDS011;35706;52.100;5.056;2023-04-25T04:39:41;10.40;;;0.50;;
49812;SDS011;35706;52.100;5.056;2023-04-25T04:40:41;5.95;;;0.50;;
49812;SDS011;35706;52.100;5.056;2023-04-25T04:41:45;4.85;;;0.50;;
49812;SDS011;35706;52.100;5.056;2023-04-25T04:42:45;7.10;;;0.30;;
49812;SDS011;35706;52.100;5.056;2023-04-25T04:43:45;3.25;;;0.30;;
49812;SDS011;35706;52.100;5.056;2023-04-25T04:44:45;5.28;;;0.35;;
49812;SDS011;35706;52.100;5.056;2023-04-25T04:45:46;9.35;;;0.43;;
49812;SDS011;35706;52.100;5.056;2023-04-25T04:46:47;4.47;;;0.40;;
49812;SDS011;35706;52.100;5.056;2023-04-25T04:47:48;5.93;;;0.40;;
49812;SDS011;35706;52.100;5.056;2023-04-25T04:48:49;3.92;;;0.30;;
49812;SDS011;35706;52.100;5.056;2023-04-25T04:49:49;10.52;;;0.40;;
49812;SDS011;35706;52.100;5.056;2023-04-25T04:50:50;4.00;;;0.50;;
49812;SDS011;35706;52.100;5.056;2023-04-25T04:51:50;3.20;;;0.30;;
49812;SDS011;35706;52.100;5.056;2023-04-25T04:52:50;8.10;;;0.50;;
49812;SDS011;35706;52.100;5.056;2023-04-25T04:53:51;5.22;;;0.30;;
49812;SDS011;35706;52.100;5.056;2023-04-25T04:54:51;3.83;;;0.40;;
49812;SDS011;35706;52.100;5.056;2023-04-25T04:55:51;7.90;;;0.38;;
49812;SDS011;35706;52.100;5.056;2023-04-25T04:56:51;8.23;;;0.40;;
49812;SDS011;35706;52.100;5.056;2023-04-25T04:57:52;7.78;;;0.30;;
49812;SDS011;35706;52.100;5.056;2023-04-25T04:58:52;9.05;;;0.35;;
49812;SDS011;35706;52.100;5.056;2023-04-25T04:59:53;6.15;;;0.43;;
49812;SDS011;35706;52.100;5.056;2023-04-25T05:00:53;7.07;;;0.40;;
49812;SDS011;35706;52.100;5.056;2023-04-25T05:01:53;3.08;;;0.30;;
49812;SDS011;35706;52.100;5.056;2023-04-25T05:02:54;2.47;;;0.40;;
49812;SDS011;35706;52.100;5.056;2023-04-25T05:03:55;6.25;;;0.30;;
49812;SDS011;35706;52.100;5.056;2023-04-25T05:05:00;3.33;;;0.40;;
49812;SDS011;35706;52.100;5.056;2023-04-25T05:06:00;4.80;;;0.30;;
49812;SDS011;35706;52.100;5.056;2023-04-25T05:07:00;4.18;;;0.40;;
49812;SDS011;35706;52.100;5.056;2023-04-25T05:08:00;4.47;;;0.30;;
49812;SDS011;35706;52.100;5.056;2023-04-25T05:09:01;4.50;;;0.50;;
49812;SDS011;35706;52.100;5.056;2023-04-25T05:10:01;4.28;;;0.30;;
49812;SDS011;35706;52.100;5.056;2023-04-25T05:11:02;6.88;;;0.30;;
49812;SDS011;35706;52.100;5.056;2023-04-25T05:12:02;4.20;;;0.50;;
49812;SDS011;35706;52.100;5.056;2023-04-25T05:13:03;3.90;;;0.40;;
49812;SDS011;35706;52.100;5.056;2023-04-25T05:14:03;3.70;;;0.30;;
49812;SDS011;35706;52.100;5.056;2023-04-25T05:15:03;7.70;;;0.30;;
49812;SDS011;35706;52.100;5.056;2023-04-25T05:16:04;7.22;;;0.50;;
49812;SDS011;35706;52.100;5.056;2023-04-25T05:17:05;3.75;;;0.40;;
49812;SDS011;35706;52.100;5.056;2023-04-25T05:18:08;5.43;;;0.40;;
49812;SDS011;35706;52.100;5.056;2023-04-25T05:19:08;5.43;;;0.40;;
49812;SDS011;35706;52.100;5.056;2023-04-25T05:20:09;2.15;;;0.40;;
49812;SDS011;35706;52.100;5.056;2023-04-25T05:21:09;4.32;;;0.30;;
49812;SDS011;35706;52.100;5.056;2023-04-25T05:22:10;1.83;;;0.30;;
49812;SDS011;35706;52.100;5.056;2023-04-25T05:23:10;6.90;;;0.40;;
49812;SDS011;35706;52.100;5.056;2023-04-25T05:24:11;4.38;;;0.30;;
49812;SDS011;35706;52.100;5.056;2023-04-25T05:25:11;4.85;;;0.30;;
49812;SDS011;35706;52.100;5.056;2023-04-25T05:26:12;6.53;;;0.38;;
49812;SDS011;35706;52.100;5.056;2023-04-25T05:27:15;6.57;;;0.32;;
49812;SDS011;35706;52.100;5.056;2023-04-25T05:28:17;4.00;;;0.30;;
49812;SDS011;35706;52.100;5.056;2023-04-25T05:29:17;5.47;;;0.30;;
49812;SDS011;35706;52.100;5.056;2023-04-25T05:30:18;4.97;;;0.30;;
49812;SDS011;35706;52.100;5.056;2023-04-25T05:31:18;2.50;;;0.30;;
49812;SDS011;35706;52.100;5.056;2023-04-25T05:32:18;5.22;;;0.30;;
49812;SDS011;35706;52.100;5.056;2023-04-25T05:33:18;2.03;;;0.32;;
49812;SDS011;35706;52.100;5.056;2023-04-25T05:34:19;9.10;;;0.43;;
49812;SDS011;35706;52.100;5.056;2023-04-25T05:35:19;3.13;;;0.40;;
49812;SDS011;35706;52.100;5.056;2023-04-25T05:36:20;4.90;;;0.30;;
49812;SDS011;35706;52.100;5.056;2023-04-25T05:37:20;4.35;;;0.30;;
49812;SDS011;35706;52.100;5.056;2023-04-25T05:38:20;2.72;;;0.30;;
49812;SDS011;35706;52.100;5.056;2023-04-25T05:39:21;5.90;;;0.40;;
49812;SDS011;35706;52.100;5.056;2023-04-25T05:40:21;2.65;;;0.30;;
49812;SDS011;35706;52.100;5.056;2023-04-25T05:41:21;8.35;;;0.40;;
49812;SDS011;35706;52.100;5.056;2023-04-25T05:42:22;3.95;;;0.40;;
49812;SDS011;35706;52.100;5.056;2023-04-25T05:43:22;2.33;;;0.30;;
49812;SDS011;35706;52.100;5.056;2023-04-25T05:44:22;3.25;;;0.30;;
49812;SDS011;35706;52.100;5.056;2023-04-25T05:45:23;6.20;;;0.30;;
49812;SDS011;35706;52.100;5.056;2023-04-25T05:46:23;2.42;;;0.30;;
49812;SDS011;35706;52.100;5.056;2023-04-25T05:47:23;5.10;;;0.40;;
49812;SDS011;35706;52.100;5.056;2023-04-25T05:48:24;6.57;;;0.30;;
49812;SDS011;35706;52.100;5.056;2023-04-25T05:49:24;3.45;;;0.20;;
49812;SDS011;35706;52.100;5.056;2023-04-25T05:50:24;3.42;;;0.30;;
49812;SDS011;35706;52.100;5.056;2023-04-25T05:51:25;3.70;;;0.30;;
49812;SDS011;35706;52.100;5.056;2023-04-25T05:52:25;5.72;;;0.40;;
49812;SDS011;35706;52.100;5.056;2023-04-25T05:53:26;3.00;;;0.38;;
49812;SDS011;35706;52.100;5.056;2023-04-25T05:54:26;3.95;;;0.38;;
49812;SDS011;35706;52.100;5.056;2023-04-25T05:55:26;4.05;;;0.30;;
49812;SDS011;35706;52.100;5.056;2023-04-25T05:56:27;8.88;;;0.68;;
49812;SDS011;35706;52.100;5.056;2023-04-25T05:57:27;5.20;;;0.30;;
49812;SDS011;35706;52.100;5.056;2023-04-25T05:58:27;5.00;;;0.38;;
49812;SDS011;35706;52.100;5.056;2023-04-25T05:59:28;3.20;;;0.30;;
49812;SDS011;35706;52.100;5.056;2023-04-25T06:00:29;6.57;;;0.30;;
49812;SDS011;35706;52.100;5.056;2023-04-25T06:01:29;3.33;;;0.40;;
49812;SDS011;35706;52.100;5.056;2023-04-25T06:02:30;3.78;;;0.30;;
49812;SDS011;35706;52.100;5.056;2023-04-25T06:03:30;2.80;;;0.30;;